Time;durP1;ratioP1;P1;durP2;ratioP2;P2;SDS_P1;SDS_P2;PMS_P1;PMS_P2;Temp;Humidity;BMP_temperature;BMP_pressure;BME280_temperature;BME280_humidity;BME280_pressure;Samples;Min_cycle;Max_cycle;Signal;HPM_P1;HPM_P2
2023/10/10 00:01:52;;;;;;;51.07;28.60;;;;;;;;;;10444226;28;20028;-81
2023/10/10 00:06:53;;;;;;;50.07;28.00;;;;;;;;;;10432025;28;20111;-81
2023/10/10 00:11:57;;;;;;;32.87;19.53;;;;;;;;;;10457476;28;20037;-81
2023/10/10 00:16:59;;;;;;;44.20;24.27;;;;;;;;;;10462448;28;20040;-82
2023/10/10 00:22:04;;;;;;;42.63;23.40;;;;;;;;;;10456315;28;20148;-81
2023/10/10 00:27:12;;;;;;;41.03;21.80;;;;;;;;;;10455687;28;20048;-80
2023/10/10 00:32:17;;;;;;;39.60;22.63;;;;;;;;;;10441104;28;20400;-80
2023/10/10 00:37:25;;;;;;;41.40;24.63;;;;;;;;;;10442222;28;20029;-81
2023/10/10 00:42:37;;;;;;;42.20;22.30;;;;;;;;;;10455263;28;20036;-81
2023/10/10 00:47:40;;;;;;;37.93;20.87;;;;;;;;;;10457386;28;20044;-82
2023/10/10 00:52:43;;;;;;;52.17;24.90;;;;;;;;;;10469611;28;20048;-81
2023/10/10 00:57:44;;;;;;;54.20;28.53;;;;;;;;;;10437259;28;20033;-81
2023/10/10 01:02:45;;;;;;;54.47;28.90;;;;;;;;;;10455972;28;20108;-81
2023/10/10 01:07:51;;;;;;;45.97;26.17;;;;;;;;;;10451570;28;20694;-83
2023/10/10 01:12:53;;;;;;;48.80;25.52;;;;;;;;;;10466895;28;20040;-81
2023/10/10 01:17:57;;;;;;;51.37;27.93;;;;;;;;;;10462934;28;20059;-81
2023/10/10 01:22:58;;;;;;;35.33;19.93;;;;;;;;;;10465526;28;20407;-81
2023/10/10 01:28:02;;;;;;;52.73;27.97;;;;;;;;;;10456838;28;20437;-80
2023/10/10 01:33:03;;;;;;;63.97;34.27;;;;;;;;;;10482375;28;20029;-81
2023/10/10 01:38:04;;;;;;;76.83;37.50;;;;;;;;;;10459134;28;20079;-81
2023/10/10 01:43:10;;;;;;;56.57;29.33;;;;;;;;;;10471489;28;20039;-81
2023/10/10 01:48:11;;;;;;;70.07;35.90;;;;;;;;;;10474060;28;20044;-81
2023/10/10 01:53:12;;;;;;;65.97;31.40;;;;;;;;;;10463295;28;20029;-81
2023/10/10 01:58:19;;;;;;;46.20;23.70;;;;;;;;;;10467148;28;20384;-81
2023/10/10 02:03:21;;;;;;;74.00;33.40;;;;;;;;;;10475710;28;20435;-81
2023/10/10 02:08:23;;;;;;;69.77;33.23;;;;;;;;;;10467686;28;20098;-81
2023/10/10 02:13:25;;;;;;;61.10;32.53;;;;;;;;;;10468839;28;20104;-80
2023/10/10 02:18:39;;;;;;;58.23;30.03;;;;;;;;;;10470330;28;20047;-81
2023/10/10 02:23:44;;;;;;;55.80;29.63;;;;;;;;;;10456880;28;20064;-81
2023/10/10 02:28:49;;;;;;;47.77;26.17;;;;;;;;;;10474181;28;20036;-83
2023/10/10 02:33:55;;;;;;;67.53;33.00;;;;;;;;;;10444485;28;20029;-81
2023/10/10 02:38:59;;;;;;;72.10;33.20;;;;;;;;;;10472993;28;20033;-81
2023/10/10 02:49:46;;;;;;;65.03;30.93;;;;;;;;;;10480684;28;20111;-81
2023/10/10 02:54:54;;;;;;;62.40;29.73;;;;;;;;;;10471413;28;20671;-81
2023/10/10 02:59:59;;;;;;;47.70;26.00;;;;;;;;;;10435532;28;20029;-81
2023/10/10 03:15:27;;;;;;;49.73;26.17;;;;;;;;;;10482105;28;20024;-81
2023/10/10 03:25:45;;;;;;;66.00;30.43;;;;;;;;;;10442391;28;20060;-81
2023/10/10 03:31:04;;;;;;;52.70;27.90;;;;;;;;;;10435667;28;20739;-83
2023/10/10 05:27:44;;;;;;;50.40;25.57;;;;;;;;;;10456820;28;20040;-82
2023/10/10 05:33:00;;;;;;;55.13;27.17;;;;;;;;;;10465036;28;20055;-82
2023/10/10 05:38:01;;;;;;;;;;;;;;;;;;10456985;28;20061;-81
2023/10/10 05:43:03;;;;;;;73.37;40.33;;;;;;;;;;10452997;28;19908;-81
2023/10/10 05:48:08;;;;;;;41.00;22.73;;;;;;;;;;10482645;28;20625;-82
2023/10/10 05:53:09;;;;;;;42.50;22.77;;;;;;;;;;10456377;28;20047;-81
2023/10/10 05:58:12;;;;;;;33.03;18.77;;;;;;;;;;10457819;28;20024;-81
2023/10/10 06:03:20;;;;;;;32.13;18.03;;;;;;;;;;10459782;28;20032;-81
2023/10/10 06:08:21;;;;;;;35.63;17.93;;;;;;;;;;10457476;28;20079;-80
2023/10/10 06:13:23;;;;;;;29.63;18.13;;;;;;;;;;10456059;28;20047;-81
2023/10/10 06:18:25;;;;;;;34.63;19.13;;;;;;;;;;10477244;28;20107;-81
2023/10/10 06:23:26;;;;;;;31.83;18.60;;;;;;;;;;10478408;28;20584;-81
2023/10/10 06:28:28;;;;;;;32.30;19.13;;;;;;;;;;10458749;28;20040;-83
2023/10/10 06:33:29;;;;;;;34.37;20.70;;;;;;;;;;10476236;28;20063;-80
2023/10/10 06:38:32;;;;;;;33.80;18.43;;;;;;;;;;10450003;28;20045;-81
2023/10/10 06:43:40;;;;;;;32.37;19.20;;;;;;;;;;10476425;28;20036;-81
2023/10/10 06:48:41;;;;;;;31.40;18.40;;;;;;;;;;10471527;28;20126;-81
2023/10/10 06:53:54;;;;;;;29.77;17.30;;;;;;;;;;10460806;28;20680;-83
2023/10/10 06:58:56;;;;;;;28.33;17.63;;;;;;;;;;10461095;28;20071;-85
2023/10/10 07:04:03;;;;;;;35.92;21.30;;;;;;;;;;10483703;28;20448;-81
2023/10/10 07:14:47;;;;;;;36.35;19.52;;;;;;;;;;10382489;28;20032;-81
2023/10/10 07:25:08;;;;;;;29.42;19.02;;;;;;;;;;10450455;28;20085;-82
2023/10/10 07:30:16;;;;;;;35.75;20.27;;;;;;;;;;10459899;28;20500;-81
2023/10/10 07:35:25;;;;;;;30.17;18.02;;;;;;;;;;10459553;28;20116;-81
2023/10/10 07:40:30;;;;;;;34.60;20.02;;;;;;;;;;10446767;28;20025;-82
2023/10/10 07:45:43;;;;;;;29.52;17.45;;;;;;;;;;10445580;28;20063;-81
2023/10/10 07:50:47;;;;;;;31.55;19.15;;;;;;;;;;10451737;28;20060;-81
2023/10/10 08:01:08;;;;;;;35.83;19.58;;;;;;;;;;10472850;28;20041;-82
2023/10/10 08:06:09;;;;;;;30.00;17.55;;;;;;;;;;10472466;28;20086;-83
2023/10/10 08:11:13;;;;;;;27.98;16.50;;;;;;;;;;10431975;28;20033;-83
2023/10/10 08:16:19;;;;;;;28.38;16.92;;;;;;;;;;10461187;28;20032;-82
2023/10/10 08:21:22;;;;;;;25.23;16.05;;;;;;;;;;10468134;28;20107;-82
2023/10/10 08:26:29;;;;;;;29.10;18.90;;;;;;;;;;10448475;28;20053;-81
2023/10/10 08:31:30;;;;;;;24.63;15.65;;;;;;;;;;10458451;28;20157;-81
2023/10/10 08:36:34;;;;;;;28.63;18.17;;;;;;;;;;10471564;28;20059;-82
2023/10/10 08:41:38;;;;;;;32.22;19.58;;;;;;;;;;10447468;28;20024;-83
2023/10/10 08:46:48;;;;;;;30.38;19.40;;;;;;;;;;10469831;28;20605;-82
2023/10/10 08:51:50;;;;;;;37.75;21.25;;;;;;;;;;10447425;28;20051;-83
2023/10/10 08:56:59;;;;;;;28.77;18.65;;;;;;;;;;10457613;28;20036;-81
2023/10/10 09:02:06;;;;;;;30.63;17.83;;;;;;;;;;10465356;28;20039;-81
2023/10/10 09:07:20;;;;;;;30.48;19.10;;;;;;;;;;10465494;28;20376;-80
2023/10/10 09:12:21;;;;;;;32.97;20.92;;;;;;;;;;10459814;28;20090;-81
2023/10/10 09:17:28;;;;;;;33.95;21.20;;;;;;;;;;10456801;28;20101;-81
2023/10/10 09:22:34;;;;;;;38.47;21.08;;;;;;;;;;10470102;28;20033;-83
2023/10/10 09:27:39;;;;;;;;;;;;;;;;;;10458113;28;20480;-81
2023/10/10 09:32:42;;;;;;;37.30;22.73;;;;;;;;;;10451971;28;20265;-81
2023/10/10 09:37:44;;;;;;;39.45;23.33;;;;;;;;;;10466065;28;20020;-81
2023/10/10 09:48:06;;;;;;;37.58;23.33;;;;;;;;;;10474461;28;20041;-81
2023/10/10 09:53:19;;;;;;;32.17;19.65;;;;;;;;;;10451835;28;20627;-83
2023/10/10 09:58:25;;;;;;;29.50;19.08;;;;;;;;;;10466164;28;20032;-81
2023/10/10 10:08:37;;;;;;;32.75;20.20;;;;;;;;;;10455322;28;20036;-83
2023/10/10 10:13:51;;;;;;;33.90;21.02;;;;;;;;;;10468827;28;20042;-80
2023/10/10 10:19:05;;;;;;;31.13;19.02;;;;;;;;;;10488889;28;20028;-82
2023/10/10 10:24:21;;;;;;;37.22;22.02;;;;;;;;;;10475717;28;20470;-82
2023/10/10 10:29:36;;;;;;;32.78;19.85;;;;;;;;;;10461818;28;20090;-82
2023/10/10 10:34:45;;;;;;;36.10;19.75;;;;;;;;;;10461749;28;20016;-81
2023/10/10 10:45:26;;;;;;;34.35;20.67;;;;;;;;;;10450394;28;20120;-81
2023/10/10 10:50:30;;;;;;;36.17;21.45;;;;;;;;;;10456237;28;20044;-83
2023/10/10 10:55:31;;;;;;;33.42;20.38;;;;;;;;;;10461238;28;20029;-81
2023/10/10 11:00:56;;;;;;;33.05;19.38;;;;;;;;;;10482152;28;20335;-81
2023/10/10 11:05:58;;;;;;;34.92;20.42;;;;;;;;;;10450497;28;20053;-84
2023/10/10 11:11:18;;;;;;;34.80;20.33;;;;;;;;;;10442255;28;20033;-81
2023/10/10 11:16:23;;;;;;;33.40;21.63;;;;;;;;;;10461523;28;20024;-81
2023/10/10 11:21:28;;;;;;;33.80;20.98;;;;;;;;;;10467856;28;20033;-81
2023/10/10 11:26:34;;;;;;;34.73;20.73;;;;;;;;;;10466066;28;20057;-82
2023/10/10 11:31:35;;;;;;;;;;;;;;;;;;10478508;28;20044;-85
2023/10/10 11:36:39;;;;;;;32.85;20.67;;;;;;;;;;10457534;28;19909;-83
2023/10/10 11:41:40;;;;;;;44.95;26.05;;;;;;;;;;10475763;28;20436;-84
2023/10/10 11:46:42;;;;;;;35.63;21.80;;;;;;;;;;10459052;28;20021;-81
2023/10/10 11:51:43;;;;;;;36.40;20.63;;;;;;;;;;10459024;28;20029;-84
2023/10/10 11:56:46;;;;;;;33.28;19.67;;;;;;;;;;10444640;28;20017;-81
2023/10/10 12:01:49;;;;;;;32.00;20.02;;;;;;;;;;10463410;28;20103;-82
2023/10/10 12:06:50;;;;;;;33.40;21.30;;;;;;;;;;10459251;28;20020;-81
2023/10/10 12:11:58;;;;;;;32.78;19.65;;;;;;;;;;10473020;28;20483;-82
2023/10/10 12:16:59;;;;;;;37.08;21.05;;;;;;;;;;10476681;28;20536;-81
2023/10/10 12:22:07;;;;;;;34.15;21.50;;;;;;;;;;10435168;28;20068;-83
2023/10/10 12:27:09;;;;;;;30.63;19.42;;;;;;;;;;10421878;28;20065;-83
2023/10/10 12:32:18;;;;;;;33.90;18.63;;;;;;;;;;10426035;28;20453;-81
2023/10/10 12:37:28;;;;;;;32.50;20.17;;;;;;;;;;10437807;28;20063;-81
2023/10/10 12:42:35;;;;;;;31.23;18.77;;;;;;;;;;10439489;28;20032;-83
2023/10/10 12:47:36;;;;;;;33.72;20.63;;;;;;;;;;10439011;28;20032;-81
2023/10/10 12:52:45;;;;;;;35.15;19.42;;;;;;;;;;10441745;28;20036;-84
2023/10/10 12:57:48;;;;;;;30.02;17.63;;;;;;;;;;10422793;28;20033;-81
2023/10/10 13:02:49;;;;;;;35.67;19.67;;;;;;;;;;10441237;28;20029;-82
2023/10/10 13:07:50;;;;;;;32.85;18.92;;;;;;;;;;10430789;28;20051;-82
2023/10/10 13:12:58;;;;;;;37.40;24.35;;;;;;;;;;10424374;28;20047;-81
2023/10/10 13:18:20;;;;;;;35.30;20.35;;;;;;;;;;10457262;28;20481;-82
2023/10/10 13:23:21;;;;;;;35.17;20.65;;;;;;;;;;10444841;28;20087;-81
2023/10/10 13:28:22;;;;;;;46.65;28.15;;;;;;;;;;10436750;28;20592;-82
2023/10/10 13:33:23;;;;;;;31.65;19.95;;;;;;;;;;10447256;28;20036;-83
2023/10/10 13:38:25;;;;;;;29.60;16.75;;;;;;;;;;10430451;28;20021;-82
2023/10/10 13:43:26;;;;;;;32.95;21.05;;;;;;;;;;10453858;28;20028;-84
2023/10/10 13:48:27;;;;;;;34.22;22.75;;;;;;;;;;10438101;28;20116;-83
2023/10/10 13:53:29;;;;;;;31.20;20.00;;;;;;;;;;10443656;28;20055;-84
2023/10/10 13:58:30;;;;;;;30.92;17.88;;;;;;;;;;10439895;28;20048;-82
2023/10/10 14:03:35;;;;;;;46.47;31.95;;;;;;;;;;10436209;28;20431;-82
2023/10/10 14:08:36;;;;;;;34.42;22.73;;;;;;;;;;10435768;28;20111;-81
2023/10/10 14:13:37;;;;;;;34.95;21.15;;;;;;;;;;10440221;28;20033;-82
2023/10/10 14:18:49;;;;;;;39.70;26.83;;;;;;;;;;10424030;28;20037;-82
2023/10/10 14:23:50;;;;;;;36.78;22.80;;;;;;;;;;10453776;28;20187;-82
2023/10/10 14:28:51;;;;;;;35.17;20.65;;;;;;;;;;10436476;28;20554;-81
2023/10/10 14:33:53;;;;;;;29.40;18.13;;;;;;;;;;10440554;28;20102;-80
2023/10/10 14:38:57;;;;;;;36.65;23.02;;;;;;;;;;10439644;28;20511;-82
2023/10/10 14:44:01;;;;;;;40.05;25.38;;;;;;;;;;10442582;28;20487;-82
2023/10/10 14:49:16;;;;;;;35.25;22.70;;;;;;;;;;10461793;28;20068;-86
2023/10/10 14:54:19;;;;;;;44.45;29.00;;;;;;;;;;10433112;28;20029;-81
2023/10/10 14:59:24;;;;;;;39.15;24.00;;;;;;;;;;10425729;28;20035;-82
2023/10/10 15:04:28;;;;;;;46.30;27.08;;;;;;;;;;10428333;28;20110;-81
2023/10/10 15:09:29;;;;;;;39.95;23.10;;;;;;;;;;10436885;28;20128;-83
2023/10/10 15:14:34;;;;;;;40.22;25.00;;;;;;;;;;10460883;28;20122;-80
2023/10/10 15:19:35;;;;;;;43.03;28.60;;;;;;;;;;10451107;28;20476;-82
2023/10/10 15:24:38;;;;;;;30.15;19.55;;;;;;;;;;10467901;28;20052;-82
2023/10/10 15:29:42;;;;;;;47.55;28.45;;;;;;;;;;10453124;28;20045;-82
2023/10/10 15:34:44;;;;;;;44.63;26.35;;;;;;;;;;10432232;28;20541;-80
2023/10/10 15:39:45;;;;;;;39.63;22.55;;;;;;;;;;10466933;28;20024;-84
2023/10/10 15:44:46;;;;;;;25.95;16.02;;;;;;;;;;10431345;28;20412;-81
2023/10/10 15:49:48;;;;;;;40.53;22.67;;;;;;;;;;10450595;28;20044;-79
2023/10/10 15:54:50;;;;;;;26.58;16.02;;;;;;;;;;10433427;28;20095;-81
2023/10/10 15:59:51;;;;;;;32.90;18.63;;;;;;;;;;10449472;28;20066;-80
2023/10/10 16:04:52;;;;;;;44.60;24.92;;;;;;;;;;10473325;28;20461;-81
2023/10/10 16:09:53;;;;;;;40.47;24.80;;;;;;;;;;10437933;28;20080;-81
2023/10/10 16:14:54;;;;;;;32.72;19.90;;;;;;;;;;10456378;28;20033;-81
2023/10/10 16:19:55;;;;;;;31.10;19.13;;;;;;;;;;10435181;28;20465;-82
2023/10/10 16:24:56;;;;;;;28.00;18.17;;;;;;;;;;10439491;28;20049;-81
2023/10/10 16:29:58;;;;;;;69.95;41.60;;;;;;;;;;10461793;28;20447;-81
2023/10/10 16:35:01;;;;;;;72.88;43.55;;;;;;;;;;10437464;28;20443;-81
2023/10/10 16:40:02;;;;;;;64.50;38.17;;;;;;;;;;10450517;28;20483;-81
2023/10/10 16:45:03;;;;;;;56.33;35.13;;;;;;;;;;10439894;28;20072;-81
2023/10/10 16:50:06;;;;;;;58.10;34.17;;;;;;;;;;10452179;28;20070;-82
2023/10/10 16:55:10;;;;;;;72.80;40.58;;;;;;;;;;10448002;28;20116;-82
2023/10/10 17:00:21;;;;;;;75.03;44.38;;;;;;;;;;10440402;28;20092;-82
2023/10/10 17:05:23;;;;;;;43.28;27.05;;;;;;;;;;10430236;28;20053;-81
2023/10/10 17:10:24;;;;;;;74.45;38.97;;;;;;;;;;10440670;28;20045;-84
2023/10/10 17:15:25;;;;;;;64.28;35.85;;;;;;;;;;10460342;28;20033;-84
2023/10/10 17:20:27;;;;;;;57.03;34.17;;;;;;;;;;10446962;28;20598;-82
2023/10/10 17:25:31;;;;;;;59.00;35.22;;;;;;;;;;10447536;28;20056;-81
2023/10/10 17:30:32;;;;;;;71.50;42.13;;;;;;;;;;10465934;28;20094;-82
2023/10/10 17:35:33;;;;;;;63.72;37.17;;;;;;;;;;10457533;28;20041;-84
2023/10/10 17:40:39;;;;;;;56.35;32.92;;;;;;;;;;10440835;28;20440;-82
2023/10/10 17:45:40;;;;;;;60.95;36.28;;;;;;;;;;10460396;28;20028;-83
2023/10/10 17:50:45;;;;;;;71.43;38.75;;;;;;;;;;10469320;28;20040;-83
2023/10/10 17:55:47;;;;;;;69.85;40.40;;;;;;;;;;10437091;28;20063;-82
2023/10/10 18:00:52;;;;;;;67.07;38.20;;;;;;;;;;10486870;28;20027;-81
2023/10/10 18:05:54;;;;;;;77.57;42.70;;;;;;;;;;10439080;28;20380;-81
2023/10/10 18:11:02;;;;;;;55.72;34.22;;;;;;;;;;10463051;28;20036;-81
2023/10/10 18:16:09;;;;;;;68.00;39.78;;;;;;;;;;10447930;28;20029;-81
2023/10/10 18:21:11;;;;;;;114.97;50.17;;;;;;;;;;10476065;28;20024;-82
2023/10/10 18:26:22;;;;;;;83.50;43.40;;;;;;;;;;10468390;28;20884;-82
2023/10/10 18:31:29;;;;;;;63.75;38.83;;;;;;;;;;10437177;28;20041;-81
2023/10/10 18:36:34;;;;;;;72.45;41.15;;;;;;;;;;10449770;28;20032;-80
2023/10/10 18:41:35;;;;;;;50.83;33.77;;;;;;;;;;10458002;28;20115;-80
2023/10/10 18:46:36;;;;;;;69.05;39.65;;;;;;;;;;10460121;28;20048;-81
2023/10/10 18:51:37;;;;;;;72.45;41.28;;;;;;;;;;10438467;28;20758;-82
2023/10/10 18:56:38;;;;;;;99.80;49.63;;;;;;;;;;10452483;28;20126;-79
2023/10/10 19:01:43;;;;;;;51.40;31.75;;;;;;;;;;10446174;28;20036;-82
2023/10/10 19:06:54;;;;;;;75.90;41.17;;;;;;;;;;10455620;28;20053;-80
2023/10/10 19:11:57;;;;;;;85.82;47.53;;;;;;;;;;10464828;28;20068;-81
2023/10/10 19:17:04;;;;;;;110.85;57.15;;;;;;;;;;10467221;28;20436;-81
2023/10/10 19:22:05;;;;;;;87.07;46.50;;;;;;;;;;10467781;28;20036;-81
2023/10/10 19:27:13;;;;;;;78.22;44.70;;;;;;;;;;10420607;28;20081;-85
2023/10/10 19:32:14;;;;;;;82.60;45.00;;;;;;;;;;10508960;22;20064;-82
2023/10/10 19:37:18;;;;;;;88.38;50.80;;;;;;;;;;10494179;28;20119;-81
2023/10/10 19:42:21;;;;;;;51.28;30.52;;;;;;;;;;10492365;28;20040;-81
2023/10/10 19:47:26;;;;;;;64.30;38.67;;;;;;;;;;10492539;28;20044;-83
2023/10/10 19:52:27;;;;;;;62.58;36.90;;;;;;;;;;10478367;28;20035;-81
2023/10/10 19:57:28;;;;;;;65.20;36.47;;;;;;;;;;10489950;28;20027;-82
2023/10/10 20:02:29;;;;;;;64.95;37.88;;;;;;;;;;10499482;28;20047;-82
2023/10/10 20:07:30;;;;;;;41.28;25.60;;;;;;;;;;10490857;28;20049;-81
2023/10/10 20:12:31;;;;;;;73.95;39.75;;;;;;;;;;10504536;28;20418;-81
2023/10/10 20:17:32;;;;;;;61.08;34.67;;;;;;;;;;10497353;28;20130;-83
2023/10/10 20:22:33;;;;;;;61.03;33.50;;;;;;;;;;10492558;28;20093;-84
2023/10/10 20:27:37;;;;;;;60.90;33.17;;;;;;;;;;10482268;28;20135;-81
2023/10/10 20:32:39;;;;;;;123.68;47.72;;;;;;;;;;10473108;28;20052;-82
2023/10/10 20:37:39;;;;;;;71.03;39.58;;;;;;;;;;10473412;28;20028;-82
2023/10/10 20:42:42;;;;;;;59.33;35.13;;;;;;;;;;10476040;28;20032;-81
2023/10/10 20:47:46;;;;;;;210.70;62.67;;;;;;;;;;10477049;28;20043;-80
2023/10/10 20:52:48;;;;;;;334.35;76.05;;;;;;;;;;10460549;28;20391;-83
2023/10/10 20:57:52;;;;;;;258.13;79.80;;;;;;;;;;10468714;28;20154;-81
2023/10/10 21:02:54;;;;;;;224.57;71.88;;;;;;;;;;10469836;28;20769;-84
2023/10/10 21:07:56;;;;;;;126.68;46.10;;;;;;;;;;10471091;28;20032;-84
2023/10/10 21:12:58;;;;;;;101.93;53.05;;;;;;;;;;10484108;28;20037;-81
2023/10/10 21:17:59;;;;;;;82.55;46.58;;;;;;;;;;10484201;28;20032;-81
2023/10/10 21:23:04;;;;;;;62.03;35.65;;;;;;;;;;10484684;28;20025;-82
2023/10/10 21:28:07;;;;;;;379.13;75.77;;;;;;;;;;10484029;28;20630;-82
2023/10/10 21:33:08;;;;;;;67.38;35.72;;;;;;;;;;10485002;28;20049;-81
2023/10/10 21:38:10;;;;;;;52.78;28.70;;;;;;;;;;10491162;28;20596;-81
2023/10/10 21:43:12;;;;;;;144.82;45.20;;;;;;;;;;10492404;28;20028;-82
2023/10/10 21:48:13;;;;;;;97.32;41.05;;;;;;;;;;10503883;22;20528;-81
2023/10/10 21:53:14;;;;;;;124.35;49.58;;;;;;;;;;10488462;28;20037;-82
2023/10/10 21:58:15;;;;;;;98.07;46.42;;;;;;;;;;10491767;28;20025;-84
2023/10/10 22:03:16;;;;;;;88.57;45.90;;;;;;;;;;10486092;28;20033;-80
2023/10/10 22:08:18;;;;;;;75.57;36.38;;;;;;;;;;10477668;28;20476;-84
2023/10/10 22:13:21;;;;;;;57.67;33.72;;;;;;;;;;10490681;28;20039;-82
2023/10/10 22:18:22;;;;;;;83.40;43.70;;;;;;;;;;10475549;28;20365;-83
2023/10/10 22:23:26;;;;;;;70.07;34.47;;;;;;;;;;10485403;28;20032;-84
2023/10/10 22:28:28;;;;;;;120.45;42.45;;;;;;;;;;10490402;28;20702;-81
2023/10/10 22:33:29;;;;;;;194.30;52.97;;;;;;;;;;10480336;28;20111;-81
2023/10/10 22:38:31;;;;;;;80.50;43.47;;;;;;;;;;10482998;28;20036;-81
2023/10/10 22:43:32;;;;;;;168.95;42.75;;;;;;;;;;10486582;28;20103;-80
2023/10/10 22:48:33;;;;;;;215.00;51.97;;;;;;;;;;10480179;28;20056;-81
2023/10/10 22:53:35;;;;;;;46.80;26.73;;;;;;;;;;10470449;28;20036;-84
2023/10/10 22:58:43;;;;;;;54.13;31.73;;;;;;;;;;10488995;28;20058;-81
2023/10/10 23:03:47;;;;;;;94.57;45.67;;;;;;;;;;10475646;28;20037;-82
2023/10/10 23:08:48;;;;;;;108.65;43.55;;;;;;;;;;10476116;28;20523;-84
2023/10/10 23:13:49;;;;;;;66.93;27.90;;;;;;;;;;10487675;28;20455;-82
2023/10/10 23:18:50;;;;;;;95.25;38.60;;;;;;;;;;10487633;28;20085;-84
2023/10/10 23:23:51;;;;;;;72.03;34.92;;;;;;;;;;10488268;28;20028;-82
2023/10/10 23:28:52;;;;;;;92.55;42.75;;;;;;;;;;10487225;28;20036;-80
2023/10/10 23:33:53;;;;;;;113.97;40.08;;;;;;;;;;10487911;28;20103;-81
2023/10/10 23:38:55;;;;;;;95.43;41.88;;;;;;;;;;10487553;28;20020;-84
2023/10/10 23:43:57;;;;;;;118.43;39.25;;;;;;;;;;10484730;28;20036;-81
2023/10/10 23:49:08;;;;;;;52.63;29.83;;;;;;;;;;10472851;28;20057;-80
2023/10/10 23:54:11;;;;;;;79.22;42.50;;;;;;;;;;10485834;28;20089;-83
2023/10/10 23:59:12;;;;;;;115.38;49.13;;;;;;;;;;10483461;28;20610;-83
